Exeter, Pennsylvania
Current Conditions -  °F | °C
As of 7:26 AM on Monday 26 Jan 2015 (Local Time) from KAVP Reporting Station
Light Snow Light Snow  
Wind Chill: -13°   Ceiling: 3200
Heat Index: -7°   Visibility: 5mi
Dew Point: -12°   Wind: 8mph
Humidity: 71%   Direction: 50°NE
Pressure: 29.88"   Gusts: NA
Location:  41.3688°N, 75.837°W
Report Text: KAVP 261226Z AUTO 05007KT 5SM -SN BKN032 OVC041 M07/M12 A2988 RMK AO2 P0000 T10721117
Loading
Personal Weather Stations






























Interactive Weather Map New forecast layout! Learn more

10-Day Weather Forecast

Advertisements
Track Severe Weather on mobile